sensor_id;sensor_type;location;lat;lon;timestamp;pressure;altitude;pressure_sealevel;temperature;humidity
35716;BME280;21840;44.920;8.616;2023-07-31T00:01:23;100008.25;;;30.98;41.59
35716;BME280;21840;44.920;8.616;2023-07-31T00:03:49;100007.50;;;30.87;42.16
35716;BME280;21840;44.920;8.616;2023-07-31T00:06:14;100014.22;;;30.94;41.52
35716;BME280;21840;44.920;8.616;2023-07-31T00:08:40;100009.63;;;30.95;41.73
35716;BME280;21840;44.920;8.616;2023-07-31T00:11:05;100009.13;;;30.88;41.49
35716;BME280;21840;44.920;8.616;2023-07-31T00:13:31;100009.94;;;30.88;41.56
35716;BME280;21840;44.920;8.616;2023-07-31T00:15:56;100014.56;;;30.88;42.05
35716;BME280;21840;44.920;8.616;2023-07-31T00:18:22;100007.75;;;30.90;42.00
35716;BME280;21840;44.920;8.616;2023-07-31T00:20:47;100013.97;;;30.96;41.77
35716;BME280;21840;44.920;8.616;2023-07-31T00:23:12;100016.69;;;30.96;41.82
35716;BME280;21840;44.920;8.616;2023-07-31T00:25:38;100016.28;;;30.58;42.65
35716;BME280;21840;44.920;8.616;2023-07-31T00:28:03;100016.19;;;30.84;42.77
35716;BME280;21840;44.920;8.616;2023-07-31T00:30:29;100008.06;;;30.79;42.83
35716;BME280;21840;44.920;8.616;2023-07-31T00:32:54;100006.16;;;30.74;43.45
35716;BME280;21840;44.920;8.616;2023-07-31T00:35:20;100002.97;;;30.57;43.88
35716;BME280;21840;44.920;8.616;2023-07-31T00:37:45;99991.91;;;30.48;43.84
35716;BME280;21840;44.920;8.616;2023-07-31T00:40:11;100001.66;;;30.49;43.43
35716;BME280;21840;44.920;8.616;2023-07-31T00:42:36;99992.50;;;30.29;43.16
35716;BME280;21840;44.920;8.616;2023-07-31T00:45:02;100003.06;;;30.21;43.58
35716;BME280;21840;44.920;8.616;2023-07-31T00:47:29;99991.16;;;30.01;44.50
35716;BME280;21840;44.920;8.616;2023-07-31T00:49:55;99998.19;;;29.51;45.48
35716;BME280;21840;44.920;8.616;2023-07-31T00:52:20;100006.56;;;29.39;45.56
35716;BME280;21840;44.920;8.616;2023-07-31T00:54:46;100005.22;;;29.47;45.27
35716;BME280;21840;44.920;8.616;2023-07-31T00:57:12;100005.78;;;29.59;44.98
35716;BME280;21840;44.920;8.616;2023-07-31T00:59:37;100011.19;;;29.64;45.00
35716;BME280;21840;44.920;8.616;2023-07-31T01:02:03;100018.75;;;29.42;45.78
35716;BME280;21840;44.920;8.616;2023-07-31T01:04:29;100014.97;;;29.58;45.27
35716;BME280;21840;44.920;8.616;2023-07-31T01:07:14;100018.22;;;29.60;45.42
35716;BME280;21840;44.920;8.616;2023-07-31T01:09:49;100021.22;;;29.69;45.10
35716;BME280;21840;44.920;8.616;2023-07-31T01:12:18;100017.97;;;29.77;45.08
35716;BME280;21840;44.920;8.616;2023-07-31T01:15:03;100014.44;;;29.46;45.26
35716;BME280;21840;44.920;8.616;2023-07-31T01:17:29;100011.19;;;29.49;45.51
35716;BME280;21840;44.920;8.616;2023-07-31T01:19:59;99999.59;;;29.69;45.44
35716;BME280;21840;44.920;8.616;2023-07-31T01:27:56;99998.22;;;29.92;44.98
35716;BME280;21840;44.920;8.616;2023-07-31T01:30:28;99986.03;;;29.95;44.90
35716;BME280;21840;44.920;8.616;2023-07-31T01:32:55;99977.91;;;30.00;44.68
35716;BME280;21840;44.920;8.616;2023-07-31T01:35:21;99984.66;;;29.97;44.16
35716;BME280;21840;44.920;8.616;2023-07-31T01:37:47;99983.59;;;30.03;43.85
35716;BME280;21840;44.920;8.616;2023-07-31T01:40:13;99983.84;;;30.07;43.84
35716;BME280;21840;44.920;8.616;2023-07-31T01:42:38;99993.09;;;29.91;43.69
35716;BME280;21840;44.920;8.616;2023-07-31T01:45:04;99996.88;;;29.79;44.40
35716;BME280;21840;44.920;8.616;2023-07-31T01:47:30;99983.06;;;29.96;43.58
35716;BME280;21840;44.920;8.616;2023-07-31T01:49:55;99990.38;;;29.91;43.11
35716;BME280;21840;44.920;8.616;2023-07-31T01:52:20;99989.56;;;29.75;43.57
35716;BME280;21840;44.920;8.616;2023-07-31T01:54:46;99985.50;;;29.67;43.89
35716;BME280;21840;44.920;8.616;2023-07-31T01:57:14;99979.00;;;29.94;43.07
35716;BME280;21840;44.920;8.616;2023-07-31T01:59:40;99976.84;;;29.96;43.27
35716;BME280;21840;44.920;8.616;2023-07-31T02:02:05;99990.34;;;30.11;42.94
35716;BME280;21840;44.920;8.616;2023-07-31T02:04:31;99986.56;;;30.07;42.60
35716;BME280;21840;44.920;8.616;2023-07-31T02:06:56;100002.00;;;29.91;42.97
35716;BME280;21840;44.920;8.616;2023-07-31T02:09:21;99999.56;;;29.95;42.86
35716;BME280;21840;44.920;8.616;2023-07-31T02:11:47;100003.63;;;29.87;43.19
35716;BME280;21840;44.920;8.616;2023-07-31T02:14:12;99995.25;;;29.83;42.93
35716;BME280;21840;44.920;8.616;2023-07-31T02:16:38;99980.59;;;30.00;42.86
35716;BME280;21840;44.920;8.616;2023-07-31T02:19:03;99981.97;;;29.87;42.87
35716;BME280;21840;44.920;8.616;2023-07-31T02:21:29;99966.53;;;29.82;43.10
35716;BME280;21840;44.920;8.616;2023-07-31T02:23:54;99978.19;;;29.98;42.97
35716;BME280;21840;44.920;8.616;2023-07-31T02:26:20;99981.16;;;29.97;42.91
35716;BME280;21840;44.920;8.616;2023-07-31T02:28:46;99991.47;;;29.79;43.22
35716;BME280;21840;44.920;8.616;2023-07-31T02:31:11;100000.69;;;29.68;43.62
35716;BME280;21840;44.920;8.616;2023-07-31T02:33:36;99987.13;;;29.83;44.30
35716;BME280;21840;44.920;8.616;2023-07-31T02:36:02;99997.09;;;29.62;44.09
35716;BME280;21840;44.920;8.616;2023-07-31T02:38:27;100000.34;;;29.59;44.38
35716;BME280;21840;44.920;8.616;2023-07-31T02:40:53;100003.59;;;29.46;45.01
35716;BME280;21840;44.920;8.616;2023-07-31T02:43:18;100001.94;;;29.30;45.68
35716;BME280;21840;44.920;8.616;2023-07-31T02:45:44;100003.84;;;29.34;45.56
35716;BME280;21840;44.920;8.616;2023-07-31T02:48:10;99998.16;;;29.26;45.74
35716;BME280;21840;44.920;8.616;2023-07-31T02:50:35;100002.19;;;29.18;46.32
35716;BME280;21840;44.920;8.616;2023-07-31T02:53:01;100000.81;;;29.15;45.91
35716;BME280;21840;44.920;8.616;2023-07-31T02:55:26;100001.13;;;29.19;45.39
35716;BME280;21840;44.920;8.616;2023-07-31T02:57:52;100000.53;;;29.07;45.84
35716;BME280;21840;44.920;8.616;2023-07-31T03:00:18;100003.53;;;29.15;45.39
35716;BME280;21840;44.920;8.616;2023-07-31T03:02:44;100007.63;;;28.60;46.46
35716;BME280;21840;44.920;8.616;2023-07-31T03:05:10;100001.44;;;28.65;46.21
35716;BME280;21840;44.920;8.616;2023-07-31T03:07:35;100003.09;;;28.71;46.03
35716;BME280;21840;44.920;8.616;2023-07-31T03:10:01;100007.13;;;28.63;46.35
35716;BME280;21840;44.920;8.616;2023-07-31T03:12:27;100013.94;;;28.76;46.12
35716;BME280;21840;44.920;8.616;2023-07-31T03:14:53;100021.78;;;28.82;45.78
35716;BME280;21840;44.920;8.616;2023-07-31T03:17:18;100020.88;;;28.56;46.32
35716;BME280;21840;44.920;8.616;2023-07-31T03:19:44;100021.66;;;28.52;46.31
35716;BME280;21840;44.920;8.616;2023-07-31T03:22:27;100022.38;;;28.42;46.46
35716;BME280;21840;44.920;8.616;2023-07-31T03:24:53;100025.44;;;28.51;46.30
35716;BME280;21840;44.920;8.616;2023-07-31T03:27:19;100017.84;;;28.48;46.56
35716;BME280;21840;44.920;8.616;2023-07-31T03:29:44;100013.75;;;28.45;46.18
35716;BME280;21840;44.920;8.616;2023-07-31T03:32:10;100018.59;;;28.43;46.22
35716;BME280;21840;44.920;8.616;2023-07-31T03:34:35;100021.13;;;28.55;46.02
35716;BME280;21840;44.920;8.616;2023-07-31T03:37:00;100033.03;;;28.59;46.07
35716;BME280;21840;44.920;8.616;2023-07-31T03:39:26;100032.72;;;28.55;45.91
35716;BME280;21840;44.920;8.616;2023-07-31T03:41:52;100034.94;;;28.21;46.59
35716;BME280;21840;44.920;8.616;2023-07-31T03:44:18;100031.50;;;27.93;47.73
35716;BME280;21840;44.920;8.616;2023-07-31T03:46:44;100024.94;;;28.22;47.16
35716;BME280;21840;44.920;8.616;2023-07-31T03:49:09;100023.09;;;28.27;46.90
35716;BME280;21840;44.920;8.616;2023-07-31T03:51:35;100020.03;;;28.51;46.57
35716;BME280;21840;44.920;8.616;2023-07-31T03:54:00;100018.09;;;28.46;46.78
35716;BME280;21840;44.920;8.616;2023-07-31T03:56:26;100019.16;;;28.45;46.63
35716;BME280;21840;44.920;8.616;2023-07-31T03:58:51;100015.19;;;28.58;46.65
35716;BME280;21840;44.920;8.616;2023-07-31T04:01:17;100022.22;;;28.59;46.40
35716;BME280;21840;44.920;8.616;2023-07-31T04:03:43;100020.03;;;28.51;46.99
35716;BME280;21840;44.920;8.616;2023-07-31T04:06:08;100022.91;;;28.44;47.13
35716;BME280;21840;44.920;8.616;2023-07-31T04:08:34;100030.53;;;28.47;47.12
35716;BME280;21840;44.920;8.616;2023-07-31T04:10:59;100031.97;;;28.65;46.62
35716;BME280;21840;44.920;8.616;2023-07-31T04:13:25;100028.97;;;28.56;47.00
35716;BME280;21840;44.920;8.616;2023-07-31T04:15:52;100031.97;;;28.65;46.72
35716;BME280;21840;44.920;8.616;2023-07-31T04:18:19;100029.00;;;28.67;46.63
35716;BME280;21840;44.920;8.616;2023-07-31T04:20:45;100036.06;;;28.73;46.67
35716;BME280;21840;44.920;8.616;2023-07-31T04:23:11;100038.06;;;28.98;45.95
35716;BME280;21840;44.920;8.616;2023-07-31T04:25:36;100048.53;;;28.79;46.15
35716;BME280;21840;44.920;8.616;2023-07-31T04:28:02;100035.91;;;29.00;45.99
35716;BME280;21840;44.920;8.616;2023-07-31T04:30:30;100047.81;;;29.04;45.66
35716;BME280;21840;44.920;8.616;2023-07-31T04:32:55;100057.44;;;28.79;45.84
35716;BME280;21840;44.920;8.616;2023-07-31T04:35:21;100059.31;;;28.74;45.95
35716;BME280;21840;44.920;8.616;2023-07-31T04:37:46;100059.38;;;28.84;46.07
35716;BME280;21840;44.920;8.616;2023-07-31T04:40:15;100049.34;;;28.79;46.16
35716;BME280;21840;44.920;8.616;2023-07-31T04:42:40;100050.09;;;28.70;46.60
35716;BME280;21840;44.920;8.616;2023-07-31T04:45:07;100056.22;;;28.17;48.08
35716;BME280;21840;44.920;8.616;2023-07-31T04:47:32;100058.63;;;28.46;47.63
35716;BME280;21840;44.920;8.616;2023-07-31T04:49:58;100065.53;;;27.72;48.67
35716;BME280;21840;44.920;8.616;2023-07-31T04:52:23;100064.84;;;27.82;48.56
35716;BME280;21840;44.920;8.616;2023-07-31T04:54:48;100068.25;;;28.00;48.00
35716;BME280;21840;44.920;8.616;2023-07-31T04:57:14;100066.03;;;27.91;48.05
35716;BME280;21840;44.920;8.616;2023-07-31T04:59:39;100071.38;;;28.18;47.31
35716;BME280;21840;44.920;8.616;2023-07-31T05:02:07;100071.16;;;28.30;47.14
35716;BME280;21840;44.920;8.616;2023-07-31T05:04:32;100080.56;;;28.60;46.56
35716;BME280;21840;44.920;8.616;2023-07-31T05:06:57;100078.66;;;28.55;46.47
35716;BME280;21840;44.920;8.616;2023-07-31T05:09:23;100081.00;;;28.84;45.97
35716;BME280;21840;44.920;8.616;2023-07-31T05:11:48;100082.16;;;28.98;45.36
35716;BME280;21840;44.920;8.616;2023-07-31T05:14:14;100091.13;;;29.09;45.14
35716;BME280;21840;44.920;8.616;2023-07-31T05:16:39;100092.22;;;29.08;45.24
35716;BME280;21840;44.920;8.616;2023-07-31T05:19:04;100099.03;;;29.21;44.54
35716;BME280;21840;44.920;8.616;2023-07-31T05:21:30;100108.22;;;29.25;44.34
35716;BME280;21840;44.920;8.616;2023-07-31T05:23:55;100105.31;;;29.42;44.50
35716;BME280;21840;44.920;8.616;2023-07-31T05:26:21;100113.66;;;29.35;44.59
35716;BME280;21840;44.920;8.616;2023-07-31T05:28:46;100116.94;;;29.42;44.42
35716;BME280;21840;44.920;8.616;2023-07-31T05:31:12;100120.03;;;29.77;44.39
35716;BME280;21840;44.920;8.616;2023-07-31T05:33:37;100123.56;;;29.87;44.22
35716;BME280;21840;44.920;8.616;2023-07-31T05:36:02;100120.84;;;29.82;44.30
35716;BME280;21840;44.920;8.616;2023-07-31T05:38:28;100122.50;;;30.04;43.98
35716;BME280;21840;44.920;8.616;2023-07-31T05:40:53;100132.78;;;29.92;44.40
35716;BME280;21840;44.920;8.616;2023-07-31T05:43:19;100144.72;;;30.16;44.28
35716;BME280;21840;44.920;8.616;2023-07-31T05:45:44;100133.88;;;30.16;44.58
35716;BME280;21840;44.920;8.616;2023-07-31T05:48:10;100128.75;;;30.30;44.70
35716;BME280;21840;44.920;8.616;2023-07-31T05:50:35;100130.38;;;30.21;44.97
35716;BME280;21840;44.920;8.616;2023-07-31T05:53:02;100126.88;;;30.25;45.08
35716;BME280;21840;44.920;8.616;2023-07-31T05:55:27;100127.38;;;30.33;45.44
35716;BME280;21840;44.920;8.616;2023-07-31T05:57:53;100120.88;;;30.18;45.97
35716;BME280;21840;44.920;8.616;2023-07-31T06:00:19;100124.13;;;30.20;45.74
35716;BME280;21840;44.920;8.616;2023-07-31T06:02:44;100129.03;;;30.44;45.52
35716;BME280;21840;44.920;8.616;2023-07-31T06:05:10;100126.03;;;30.30;46.06
35716;BME280;21840;44.920;8.616;2023-07-31T06:07:35;100132.81;;;30.33;45.77
35716;BME280;21840;44.920;8.616;2023-07-31T06:10:01;100134.69;;;30.47;45.51
35716;BME280;21840;44.920;8.616;2023-07-31T06:12:31;100136.31;;;30.18;46.47
35716;BME280;21840;44.920;8.616;2023-07-31T06:14:57;100139.88;;;30.44;45.72
35716;BME280;21840;44.920;8.616;2023-07-31T06:17:22;100131.44;;;30.66;45.54
35716;BME280;21840;44.920;8.616;2023-07-31T06:19:49;100120.28;;;30.72;45.58
35716;BME280;21840;44.920;8.616;2023-07-31T06:22:14;100136.06;;;30.45;45.94
35716;BME280;21840;44.920;8.616;2023-07-31T06:24:40;100134.94;;;30.71;45.63
35716;BME280;21840;44.920;8.616;2023-07-31T06:27:06;100135.22;;;30.85;45.41
35716;BME280;21840;44.920;8.616;2023-07-31T06:29:31;100134.34;;;30.95;45.55
35716;BME280;21840;44.920;8.616;2023-07-31T06:31:57;100125.69;;;31.03;45.42
35716;BME280;21840;44.920;8.616;2023-07-31T06:34:22;100129.19;;;31.04;45.61
35716;BME280;21840;44.920;8.616;2023-07-31T06:36:51;100121.53;;;31.21;45.50
35716;BME280;21840;44.920;8.616;2023-07-31T06:39:16;100122.91;;;31.13;45.27
35716;BME280;21840;44.920;8.616;2023-07-31T06:41:42;100118.06;;;31.10;45.81
35716;BME280;21840;44.920;8.616;2023-07-31T06:44:10;100117.19;;;31.15;45.47
35716;BME280;21840;44.920;8.616;2023-07-31T06:46:36;100118.00;;;31.26;45.66
35716;BME280;21840;44.920;8.616;2023-07-31T06:49:01;100122.28;;;31.32;45.49
35716;BME280;21840;44.920;8.616;2023-07-31T06:51:26;100126.81;;;31.52;45.25
35716;BME280;21840;44.920;8.616;2023-07-31T06:53:52;100127.81;;;31.06;46.04
35716;BME280;21840;44.920;8.616;2023-07-31T06:56:17;100132.16;;;31.02;46.74
35716;BME280;21840;44.920;8.616;2023-07-31T06:58:43;100138.91;;;31.10;46.32
35716;BME280;21840;44.920;8.616;2023-07-31T07:01:08;100139.97;;;31.19;46.08
35716;BME280;21840;44.920;8.616;2023-07-31T07:03:34;100147.78;;;31.41;45.50
35716;BME280;21840;44.920;8.616;2023-07-31T07:05:59;100149.19;;;31.28;45.77
35716;BME280;21840;44.920;8.616;2023-07-31T07:08:25;100150.41;;;31.56;45.29
35716;BME280;21840;44.920;8.616;2023-07-31T07:10:50;100156.28;;;31.74;44.84
35716;BME280;21840;44.920;8.616;2023-07-31T07:13:16;100149.34;;;31.52;45.08
35716;BME280;21840;44.920;8.616;2023-07-31T07:15:47;100149.84;;;31.59;45.10
35716;BME280;21840;44.920;8.616;2023-07-31T07:18:13;100149.28;;;31.63;45.03
35716;BME280;21840;44.920;8.616;2023-07-31T07:20:39;100150.13;;;31.63;45.15
35716;BME280;21840;44.920;8.616;2023-07-31T07:23:04;100147.19;;;31.99;44.28
35716;BME280;21840;44.920;8.616;2023-07-31T07:25:30;100152.34;;;32.00;44.06
35716;BME280;21840;44.920;8.616;2023-07-31T07:27:55;100149.66;;;32.30;43.52
35716;BME280;21840;44.920;8.616;2023-07-31T07:30:21;100152.97;;;32.27;43.60
35716;BME280;21840;44.920;8.616;2023-07-31T07:32:46;100164.19;;;32.49;43.31
35716;BME280;21840;44.920;8.616;2023-07-31T07:35:12;100166.03;;;32.59;42.95
35716;BME280;21840;44.920;8.616;2023-07-31T07:37:38;100172.25;;;32.25;43.45
35716;BME280;21840;44.920;8.616;2023-07-31T07:40:03;100166.22;;;31.99;44.13
35716;BME280;21840;44.920;8.616;2023-07-31T07:42:29;100157.41;;;32.12;43.70
35716;BME280;21840;44.920;8.616;2023-07-31T07:44:54;100146.47;;;32.22;43.64
35716;BME280;21840;44.920;8.616;2023-07-31T07:47:20;100153.75;;;32.27;43.33
35716;BME280;21840;44.920;8.616;2023-07-31T07:49:45;100146.94;;;32.30;43.45
35716;BME280;21840;44.920;8.616;2023-07-31T07:52:10;100151.25;;;32.36;43.39
35716;BME280;21840;44.920;8.616;2023-07-31T07:54:36;100146.47;;;32.57;42.97
35716;BME280;21840;44.920;8.616;2023-07-31T07:57:01;100151.25;;;32.36;43.45
35716;BME280;21840;44.920;8.616;2023-07-31T07:59:27;100153.97;;;32.70;42.78
35716;BME280;21840;44.920;8.616;2023-07-31T08:01:52;100149.94;;;32.62;43.09
35716;BME280;21840;44.920;8.616;2023-07-31T08:04:18;100148.09;;;32.82;42.62
35716;BME280;21840;44.920;8.616;2023-07-31T08:06:44;100145.75;;;32.99;42.11
35716;BME280;21840;44.920;8.616;2023-07-31T08:09:09;100152.59;;;33.21;41.41
35716;BME280;21840;44.920;8.616;2023-07-31T08:11:35;100156.72;;;33.18;41.51
35716;BME280;21840;44.920;8.616;2023-07-31T08:14:00;100146.81;;;33.46;40.62
35716;BME280;21840;44.920;8.616;2023-07-31T08:16:26;100157.84;;;33.36;41.09
35716;BME280;21840;44.920;8.616;2023-07-31T08:18:51;100160.69;;;33.26;40.96
35716;BME280;21840;44.920;8.616;2023-07-31T08:21:17;100156.00;;;33.56;40.79
35716;BME280;21840;44.920;8.616;2023-07-31T08:23:43;100152.25;;;33.70;40.36
35716;BME280;21840;44.920;8.616;2023-07-31T08:26:14;100153.31;;;33.50;40.41
35716;BME280;21840;44.920;8.616;2023-07-31T08:28:40;100158.50;;;33.47;40.96
35716;BME280;21840;44.920;8.616;2023-07-31T08:31:05;100165.06;;;33.46;40.99
35716;BME280;21840;44.920;8.616;2023-07-31T08:33:30;100163.50;;;33.40;41.50
35716;BME280;21840;44.920;8.616;2023-07-31T08:35:56;100152.06;;;33.43;41.10
35716;BME280;21840;44.920;8.616;2023-07-31T08:38:22;100159.47;;;33.37;41.33
35716;BME280;21840;44.920;8.616;2023-07-31T08:40:50;100153.66;;;33.44;41.05
35716;BME280;21840;44.920;8.616;2023-07-31T08:43:16;100156.53;;;33.09;42.06
35716;BME280;21840;44.920;8.616;2023-07-31T08:45:42;100155.28;;;32.97;42.28
35716;BME280;21840;44.920;8.616;2023-07-31T08:48:11;100154.59;;;33.34;41.53
35716;BME280;21840;44.920;8.616;2023-07-31T08:50:37;100150.97;;;33.20;41.65
35716;BME280;21840;44.920;8.616;2023-07-31T08:53:03;100146.28;;;33.25;42.01
35716;BME280;21840;44.920;8.616;2023-07-31T08:55:29;100141.16;;;33.43;41.31
35716;BME280;21840;44.920;8.616;2023-07-31T08:57:55;100141.72;;;33.64;40.76
35716;BME280;21840;44.920;8.616;2023-07-31T09:00:22;100139.00;;;33.83;40.96
35716;BME280;21840;44.920;8.616;2023-07-31T09:02:56;100139.91;;;33.92;40.84
35716;BME280;21840;44.920;8.616;2023-07-31T09:05:23;100144.34;;;33.50;41.26
35716;BME280;21840;44.920;8.616;2023-07-31T09:07:51;100136.03;;;33.79;40.79
35716;BME280;21840;44.920;8.616;2023-07-31T09:10:16;100136.47;;;33.86;40.44
35716;BME280;21840;44.920;8.616;2023-07-31T09:12:42;100136.47;;;34.05;40.32
35716;BME280;21840;44.920;8.616;2023-07-31T09:15:08;100144.94;;;34.23;39.76
35716;BME280;21840;44.920;8.616;2023-07-31T09:17:36;100136.59;;;34.14;40.02
35716;BME280;21840;44.920;8.616;2023-07-31T09:20:22;100140.22;;;34.09;40.35
35716;BME280;21840;44.920;8.616;2023-07-31T09:22:48;100143.19;;;34.27;40.13
35716;BME280;21840;44.920;8.616;2023-07-31T09:25:24;100143.63;;;34.34;39.81
35716;BME280;21840;44.920;8.616;2023-07-31T09:30:17;100137.06;;;34.82;38.87
35716;BME280;21840;44.920;8.616;2023-07-31T09:32:47;100145.16;;;34.73;39.07
35716;BME280;21840;44.920;8.616;2023-07-31T09:35:31;100150.72;;;34.49;39.36
35716;BME280;21840;44.920;8.616;2023-07-31T09:40:33;100140.22;;;34.75;39.08
35716;BME280;21840;44.920;8.616;2023-07-31T09:43:00;100144.53;;;34.76;39.12
35716;BME280;21840;44.920;8.616;2023-07-31T09:45:26;100141.84;;;34.57;39.25
35716;BME280;21840;44.920;8.616;2023-07-31T09:47:53;100152.38;;;34.50;39.26
35716;BME280;21840;44.920;8.616;2023-07-31T09:50:23;100143.50;;;34.58;39.26
35716;BME280;21840;44.920;8.616;2023-07-31T09:52:50;100134.84;;;34.84;38.68
35716;BME280;21840;44.920;8.616;2023-07-31T09:55:17;100132.84;;;35.03;37.81
35716;BME280;21840;44.920;8.616;2023-07-31T09:57:46;100129.63;;;35.51;37.33
35716;BME280;21840;44.920;8.616;2023-07-31T10:00:13;100125.41;;;35.81;36.63
35716;BME280;21840;44.920;8.616;2023-07-31T10:02:40;100124.69;;;35.90;36.51
35716;BME280;21840;44.920;8.616;2023-07-31T10:05:07;100122.91;;;35.85;36.84
35716;BME280;21840;44.920;8.616;2023-07-31T10:07:39;100116.94;;;35.33;37.28
35716;BME280;21840;44.920;8.616;2023-07-31T10:10:07;100109.22;;;35.49;37.08
35716;BME280;21840;44.920;8.616;2023-07-31T10:12:34;100113.53;;;34.25;39.50
35716;BME280;21840;44.920;8.616;2023-07-31T10:15:01;100106.53;;;34.79;38.50
35716;BME280;21840;44.920;8.616;2023-07-31T10:17:26;100093.00;;;35.02;38.40
35716;BME280;21840;44.920;8.616;2023-07-31T10:19:54;100096.16;;;34.95;38.23
35716;BME280;21840;44.920;8.616;2023-07-31T10:22:21;100099.88;;;34.86;38.59
35716;BME280;21840;44.920;8.616;2023-07-31T10:24:48;100096.56;;;35.03;38.23
35716;BME280;21840;44.920;8.616;2023-07-31T10:27:14;100095.84;;;35.11;38.09
35716;BME280;21840;44.920;8.616;2023-07-31T10:29:41;100094.44;;;34.86;38.44
35716;BME280;21840;44.920;8.616;2023-07-31T10:32:09;100085.22;;;34.95;38.50
35716;BME280;21840;44.920;8.616;2023-07-31T10:34:36;100084.81;;;35.16;37.80
35716;BME280;21840;44.920;8.616;2023-07-31T10:39:58;100082.50;;;35.23;37.48
35716;BME280;21840;44.920;8.616;2023-07-31T10:42:32;100081.47;;;35.33;37.42
35716;BME280;21840;44.920;8.616;2023-07-31T10:45:01;100072.91;;;34.98;38.35
35716;BME280;21840;44.920;8.616;2023-07-31T10:47:27;100075.72;;;34.79;38.72
35716;BME280;21840;44.920;8.616;2023-07-31T10:49:53;100065.72;;;34.88;38.62
35716;BME280;21840;44.920;8.616;2023-07-31T10:52:35;100068.25;;;34.98;38.17
35716;BME280;21840;44.920;8.616;2023-07-31T10:55:40;100069.88;;;34.86;38.67
35716;BME280;21840;44.920;8.616;2023-07-31T11:00:42;100065.41;;;35.17;38.02
35716;BME280;21840;44.920;8.616;2023-07-31T11:03:16;100057.69;;;35.33;37.88
35716;BME280;21840;44.920;8.616;2023-07-31T11:08:23;100069.41;;;36.15;36.41
35716;BME280;21840;44.920;8.616;2023-07-31T11:11:08;100069.13;;;36.25;35.98
35716;BME280;21840;44.920;8.616;2023-07-31T11:13:42;100068.22;;;36.30;36.00
35716;BME280;21840;44.920;8.616;2023-07-31T11:16:08;100053.41;;;36.31;36.19
35716;BME280;21840;44.920;8.616;2023-07-31T11:18:34;100054.34;;;36.58;35.30
35716;BME280;21840;44.920;8.616;2023-07-31T11:21:01;100043.41;;;36.58;35.78
35716;BME280;21840;44.920;8.616;2023-07-31T11:23:26;100035.66;;;36.20;36.19
35716;BME280;21840;44.920;8.616;2023-07-31T11:25:52;100032.97;;;36.68;35.77
35716;BME280;21840;44.920;8.616;2023-07-31T11:28:19;100027.38;;;36.82;35.56
35716;BME280;21840;44.920;8.616;2023-07-31T11:30:45;100026.72;;;36.85;35.43
35716;BME280;21840;44.920;8.616;2023-07-31T11:33:12;100020.13;;;36.86;35.14
35716;BME280;21840;44.920;8.616;2023-07-31T11:35:44;100018.84;;;36.92;35.01
35716;BME280;21840;44.920;8.616;2023-07-31T11:38:28;100025.28;;;36.88;35.54
35716;BME280;21840;44.920;8.616;2023-07-31T11:40:56;100024.69;;;37.26;34.46
35716;BME280;21840;44.920;8.616;2023-07-31T11:43:22;100026.16;;;37.41;34.18
35716;BME280;21840;44.920;8.616;2023-07-31T11:45:53;100024.38;;;37.71;33.87
35716;BME280;21840;44.920;8.616;2023-07-31T11:50:47;100012.50;;;37.96;33.06
35716;BME280;21840;44.920;8.616;2023-07-31T11:53:15;100014.22;;;37.45;33.70
35716;BME280;21840;44.920;8.616;2023-07-31T11:55:41;100016.91;;;37.02;34.45
35716;BME280;21840;44.920;8.616;2023-07-31T11:58:07;100012.59;;;37.27;34.28
35716;BME280;21840;44.920;8.616;2023-07-31T12:00:33;100018.72;;;37.41;33.91
35716;BME280;21840;44.920;8.616;2023-07-31T12:02:59;100009.06;;;37.35;33.79
35716;BME280;21840;44.920;8.616;2023-07-31T12:05:24;100010.03;;;37.39;33.78
35716;BME280;21840;44.920;8.616;2023-07-31T12:07:52;100002.78;;;37.26;33.54
35716;BME280;21840;44.920;8.616;2023-07-31T12:10:29;99999.75;;;37.27;33.96
35716;BME280;21840;44.920;8.616;2023-07-31T12:13:06;99997.97;;;37.23;33.51
35716;BME280;21840;44.920;8.616;2023-07-31T12:15:40;99995.38;;;37.26;33.44
35716;BME280;21840;44.920;8.616;2023-07-31T12:18:19;99993.28;;;37.06;33.58
35716;BME280;21840;44.920;8.616;2023-07-31T12:20:47;99987.63;;;37.02;33.23
35716;BME280;21840;44.920;8.616;2023-07-31T12:25:41;99972.69;;;36.51;34.35
35716;BME280;21840;44.920;8.616;2023-07-31T12:28:07;99975.69;;;36.81;33.81
35716;BME280;21840;44.920;8.616;2023-07-31T12:30:40;99963.72;;;36.59;33.68
35716;BME280;21840;44.920;8.616;2023-07-31T12:33:14;99974.72;;;36.77;33.56
35716;BME280;21840;44.920;8.616;2023-07-31T12:35:46;99963.97;;;37.15;32.67
35716;BME280;21840;44.920;8.616;2023-07-31T12:38:15;99956.72;;;37.28;32.22
35716;BME280;21840;44.920;8.616;2023-07-31T12:40:41;99953.34;;;37.95;31.20
35716;BME280;21840;44.920;8.616;2023-07-31T12:43:07;99948.06;;;37.90;31.37
35716;BME280;21840;44.920;8.616;2023-07-31T12:45:33;99942.00;;;37.67;30.81
35716;BME280;21840;44.920;8.616;2023-07-31T12:47:59;99928.09;;;37.81;30.93
35716;BME280;21840;44.920;8.616;2023-07-31T12:50:25;99937.53;;;37.45;31.08
35716;BME280;21840;44.920;8.616;2023-07-31T12:52:51;99928.66;;;37.57;30.94
35716;BME280;21840;44.920;8.616;2023-07-31T12:55:17;99917.13;;;37.81;29.99
35716;BME280;21840;44.920;8.616;2023-07-31T12:57:44;99929.00;;;37.94;29.48
35716;BME280;21840;44.920;8.616;2023-07-31T13:00:10;99911.44;;;37.95;29.67
35716;BME280;21840;44.920;8.616;2023-07-31T13:02:36;99910.34;;;37.87;30.20
35716;BME280;21840;44.920;8.616;2023-07-31T13:05:02;99906.50;;;38.18;30.10
35716;BME280;21840;44.920;8.616;2023-07-31T13:07:27;99888.97;;;38.31;29.81
35716;BME280;21840;44.920;8.616;2023-07-31T13:09:53;99890.59;;;38.32;29.42
35716;BME280;21840;44.920;8.616;2023-07-31T13:12:18;99887.41;;;38.51;29.65
35716;BME280;21840;44.920;8.616;2023-07-31T13:14:44;99882.84;;;38.76;29.18